createdAt,value
2024-01-09T00:04:51.957Z,98315.33
2024-01-09T00:14:55.260Z,98323.31
2024-01-09T00:24:58.434Z,98344.58
2024-01-09T00:35:02.404Z,98357.86
2024-01-09T00:45:09.608Z,98374.77
2024-01-09T00:55:13.374Z,98383.33
2024-01-09T01:05:17.451Z,98389.06
2024-01-09T01:15:20.889Z,98396.24
2024-01-09T01:25:24.026Z,98402.76
2024-01-09T01:35:28.127Z,98398.25
2024-01-09T01:45:31.340Z,98399.27
2024-01-09T01:55:35.508Z,98401.89
2024-01-09T02:05:39.165Z,98404.42
2024-01-09T02:15:42.411Z,98412.77
2024-01-09T02:25:47.305Z,98409.27
2024-01-09T02:35:50.339Z,98413.06
2024-01-09T02:45:53.359Z,98412.51
2024-01-09T02:55:56.518Z,98418.07
2024-01-09T03:05:59.722Z,98422.83
2024-01-09T03:16:03.715Z,98423.05
2024-01-09T03:26:06.836Z,98428.34
2024-01-09T03:36:10.336Z,98439.88
2024-01-09T03:46:13.541Z,98427.54
2024-01-09T03:56:16.689Z,98428.53
2024-01-09T04:06:20.012Z,98437.52
2024-01-09T04:16:23.724Z,98448.61
2024-01-09T04:26:26.888Z,98454.55
2024-01-09T04:36:30.003Z,98460.27
2024-01-09T04:46:33.183Z,98458.83
2024-01-09T04:56:36.502Z,98465.46
2024-01-09T05:06:39.648Z,98475.98
2024-01-09T05:16:43.070Z,98479.05
2024-01-09T05:26:46.274Z,98483.50
2024-01-09T05:36:50.570Z,98500.52
2024-01-09T05:46:53.816Z,98509.14
2024-01-09T05:56:56.987Z,98516.46
2024-01-09T06:07:00.130Z,98524.55
2024-01-09T06:17:03.433Z,98525.33
2024-01-09T06:27:06.676Z,98530.78
2024-01-09T06:37:09.920Z,98530.98
2024-01-09T06:47:13.268Z,98539.12
2024-01-09T06:57:16.590Z,98545.39
2024-01-09T07:07:20.791Z,98553.02
2024-01-09T07:17:26.135Z,98560.68
2024-01-09T07:27:29.414Z,98571.64
2024-01-09T07:37:32.628Z,98576.81
2024-01-09T07:47:35.741Z,98578.63
2024-01-09T07:57:39.072Z,98579.60
2024-01-09T08:07:42.159Z,98582.90
2024-01-09T08:17:45.527Z,98585.60
2024-01-09T08:27:49.246Z,98578.59
2024-01-09T08:37:52.362Z,98581.61
2024-01-09T08:47:55.669Z,98583.48
2024-01-09T08:57:59.379Z,98589.89
2024-01-09T09:08:02.484Z,98591.51
2024-01-09T09:18:06.306Z,98587.23
2024-01-09T09:28:09.844Z,98572.11
2024-01-09T09:38:14.917Z,98564.99
2024-01-09T09:48:21.571Z,98551.63
2024-01-09T09:58:24.785Z,98538.59
2024-01-09T10:08:30.808Z,98519.66
2024-01-09T10:18:34.673Z,98514.98
2024-01-09T10:28:38.054Z,98499.45
2024-01-09T10:38:44.568Z,98480.89
2024-01-09T10:48:48.472Z,98479.88
2024-01-09T10:58:52.189Z,98473.35
2024-01-09T11:09:00.198Z,98464.89
2024-01-09T11:19:06.583Z,98454.38
2024-01-09T11:29:09.984Z,98437.00
2024-01-09T11:39:13.047Z,98435.64
2024-01-09T11:49:16.416Z,98426.62
2024-01-09T11:59:20.007Z,98412.65
2024-01-09T12:09:23.742Z,98408.65
2024-01-09T12:19:26.917Z,98404.73
2024-01-09T12:29:30.263Z,98403.09
2024-01-09T12:39:35.110Z,98406.51
2024-01-09T12:49:59.519Z,98400.42
2024-01-09T13:00:08.549Z,98401.08
2024-01-09T13:10:11.785Z,98396.23
2024-01-09T13:20:15.123Z,98407.46
2024-01-09T13:40:25.716Z,98411.64
2024-01-09T13:51:47.775Z,98417.38
2024-01-09T14:00:53.116Z,98417.80
2024-01-09T14:10:56.447Z,98425.55
2024-01-09T14:20:59.572Z,98432.38
2024-01-09T14:31:04.461Z,98430.05
2024-01-09T14:41:10.696Z,98427.30
2024-01-09T14:51:13.855Z,98429.52
2024-01-09T15:01:19.392Z,98433.14
2024-01-09T15:11:25.980Z,98435.71
2024-01-09T15:21:34.263Z,98440.83
2024-01-09T15:31:41.020Z,98437.33
2024-01-09T15:41:44.537Z,98449.13
2024-01-09T15:51:47.864Z,98463.52
2024-01-09T16:01:51.981Z,98473.96
2024-01-09T16:11:58.077Z,98475.38
2024-01-09T16:22:01.211Z,98474.02
2024-01-09T16:32:07.167Z,98476.27
2024-01-09T16:42:10.283Z,98476.14
2024-01-09T16:52:13.324Z,98476.36
2024-01-09T17:02:16.772Z,98477.77
2024-01-09T17:12:20.852Z,98487.08
2024-01-09T17:22:23.964Z,98494.26
2024-01-09T17:32:28.450Z,98494.84
2024-01-09T17:42:36.318Z,98495.02
2024-01-09T17:52:41.397Z,98490.78
2024-01-09T18:02:44.583Z,98496.48
2024-01-09T18:12:47.700Z,98496.80
2024-01-09T18:22:50.949Z,98504.61
2024-01-09T18:32:54.078Z,98500.95
2024-01-09T18:42:57.586Z,98502.88
2024-01-09T18:53:01.676Z,98500.00
2024-01-09T19:03:05.738Z,98495.69
2024-01-09T19:13:11.087Z,98498.61
2024-01-09T19:23:14.231Z,98504.12
2024-01-09T19:33:17.711Z,98508.68
2024-01-09T19:43:27.469Z,98509.52
2024-01-09T19:53:30.607Z,98515.91
2024-01-09T20:03:33.644Z,98520.30
2024-01-09T20:13:39.486Z,98519.45
2024-01-09T20:23:45.711Z,98529.21
2024-01-09T20:33:49.606Z,98536.92
2024-01-09T20:43:56.028Z,98537.52
2024-01-09T20:53:59.027Z,98536.55
2024-01-09T21:04:05.846Z,98529.93
2024-01-09T21:14:09.362Z,98521.28
2024-01-09T21:24:12.789Z,98509.40
2024-01-09T21:34:17.118Z,98509.95
2024-01-09T21:44:20.428Z,98506.89
2024-01-09T21:54:23.684Z,98502.04
2024-01-09T22:04:28.213Z,98498.45
2024-01-09T22:14:35.854Z,98495.84
2024-01-09T22:24:39.148Z,98494.23
2024-01-09T22:34:42.233Z,98493.44
2024-01-09T22:44:45.430Z,98492.10
2024-01-09T22:54:49.147Z,98492.84
2024-01-09T23:04:52.306Z,98482.02
2024-01-09T23:14:55.708Z,98470.73
2024-01-09T23:24:59.021Z,98466.75
2024-01-09T23:35:03.019Z,98462.45
2024-01-09T23:45:07.002Z,98457.72
2024-01-09T23:55:10.293Z,98455.50
